sensor_id;sensor_type;location;lat;lon;timestamp;P1;durP1;ratioP1;P2;durP2;ratioP2
20824;SDS011;10573;50.936;6.978;2022-07-23T00:01:33;26.27;;;16.48;;
20824;SDS011;10573;50.936;6.978;2022-07-23T00:03:58;23.67;;;16.60;;
20824;SDS011;10573;50.936;6.978;2022-07-23T00:06:26;25.80;;;16.77;;
20824;SDS011;10573;50.936;6.978;2022-07-23T00:08:51;28.93;;;17.37;;
20824;SDS011;10573;50.936;6.978;2022-07-23T00:11:17;25.00;;;16.25;;
20824;SDS011;10573;50.936;6.978;2022-07-23T00:13:43;25.70;;;16.13;;
20824;SDS011;10573;50.936;6.978;2022-07-23T00:16:09;23.80;;;15.35;;
20824;SDS011;10573;50.936;6.978;2022-07-23T00:18:34;24.50;;;14.77;;
20824;SDS011;10573;50.936;6.978;2022-07-23T00:21:00;26.88;;;14.82;;
20824;SDS011;10573;50.936;6.978;2022-07-23T00:23:25;23.20;;;14.23;;
20824;SDS011;10573;50.936;6.978;2022-07-23T00:25:52;22.47;;;13.93;;
20824;SDS011;10573;50.936;6.978;2022-07-23T00:28:18;22.93;;;14.93;;
20824;SDS011;10573;50.936;6.978;2022-07-23T00:30:43;25.38;;;16.35;;
20824;SDS011;10573;50.936;6.978;2022-07-23T00:33:09;28.55;;;17.80;;
20824;SDS011;10573;50.936;6.978;2022-07-23T00:35:36;30.03;;;17.77;;
20824;SDS011;10573;50.936;6.978;2022-07-23T00:38:05;31.40;;;17.60;;
20824;SDS011;10573;50.936;6.978;2022-07-23T00:40:31;28.33;;;16.73;;
20824;SDS011;10573;50.936;6.978;2022-07-23T00:42:57;28.02;;;15.80;;
20824;SDS011;10573;50.936;6.978;2022-07-23T00:45:24;23.33;;;14.93;;
20824;SDS011;10573;50.936;6.978;2022-07-23T00:47:50;23.75;;;14.02;;
20824;SDS011;10573;50.936;6.978;2022-07-23T00:50:15;21.70;;;12.80;;
20824;SDS011;10573;50.936;6.978;2022-07-23T00:52:41;21.25;;;12.68;;
20824;SDS011;10573;50.936;6.978;2022-07-23T00:55:07;17.75;;;11.20;;
20824;SDS011;10573;50.936;6.978;2022-07-23T00:57:34;16.67;;;11.05;;
20824;SDS011;10573;50.936;6.978;2022-07-23T01:00:00;20.03;;;11.30;;
20824;SDS011;10573;50.936;6.978;2022-07-23T01:02:26;15.70;;;10.50;;
20824;SDS011;10573;50.936;6.978;2022-07-23T01:04:52;18.45;;;11.73;;
20824;SDS011;10573;50.936;6.978;2022-07-23T01:07:19;17.10;;;10.73;;
20824;SDS011;10573;50.936;6.978;2022-07-23T01:09:44;18.90;;;12.07;;
20824;SDS011;10573;50.936;6.978;2022-07-23T01:12:10;21.40;;;12.10;;
20824;SDS011;10573;50.936;6.978;2022-07-23T01:14:36;18.80;;;12.23;;
20824;SDS011;10573;50.936;6.978;2022-07-23T01:17:02;22.27;;;13.85;;
20824;SDS011;10573;50.936;6.978;2022-07-23T01:19:28;22.55;;;14.93;;
20824;SDS011;10573;50.936;6.978;2022-07-23T01:21:53;25.13;;;15.07;;
20824;SDS011;10573;50.936;6.978;2022-07-23T01:24:21;23.70;;;14.65;;
20824;SDS011;10573;50.936;6.978;2022-07-23T01:26:47;22.05;;;14.07;;
20824;SDS011;10573;50.936;6.978;2022-07-23T01:29:14;24.92;;;14.70;;
20824;SDS011;10573;50.936;6.978;2022-07-23T01:31:40;22.30;;;13.68;;
20824;SDS011;10573;50.936;6.978;2022-07-23T01:34:05;23.85;;;14.40;;
20824;SDS011;10573;50.936;6.978;2022-07-23T01:36:32;22.23;;;14.53;;
20824;SDS011;10573;50.936;6.978;2022-07-23T01:38:58;23.52;;;14.23;;
20824;SDS011;10573;50.936;6.978;2022-07-23T01:41:24;27.47;;;15.60;;
20824;SDS011;10573;50.936;6.978;2022-07-23T01:43:49;28.90;;;16.40;;
20824;SDS011;10573;50.936;6.978;2022-07-23T01:46:14;26.17;;;15.60;;
20824;SDS011;10573;50.936;6.978;2022-07-23T01:48:40;26.98;;;16.25;;
20824;SDS011;10573;50.936;6.978;2022-07-23T01:51:06;24.80;;;15.60;;
20824;SDS011;10573;50.936;6.978;2022-07-23T01:53:31;24.73;;;15.45;;
20824;SDS011;10573;50.936;6.978;2022-07-23T01:55:57;27.37;;;16.50;;
20824;SDS011;10573;50.936;6.978;2022-07-23T01:58:24;29.02;;;16.63;;
20824;SDS011;10573;50.936;6.978;2022-07-23T02:00:50;26.73;;;15.50;;
20824;SDS011;10573;50.936;6.978;2022-07-23T02:03:15;23.23;;;14.87;;
20824;SDS011;10573;50.936;6.978;2022-07-23T02:05:41;26.70;;;15.90;;
20824;SDS011;10573;50.936;6.978;2022-07-23T02:08:06;23.63;;;14.70;;
20824;SDS011;10573;50.936;6.978;2022-07-23T02:10:32;22.83;;;14.67;;
20824;SDS011;10573;50.936;6.978;2022-07-23T02:12:57;22.63;;;14.57;;
20824;SDS011;10573;50.936;6.978;2022-07-23T02:15:23;24.40;;;15.10;;
20824;SDS011;10573;50.936;6.978;2022-07-23T02:17:48;23.37;;;16.07;;
20824;SDS011;10573;50.936;6.978;2022-07-23T02:20:14;28.83;;;16.23;;
20824;SDS011;10573;50.936;6.978;2022-07-23T02:22:40;25.90;;;16.73;;
20824;SDS011;10573;50.936;6.978;2022-07-23T02:25:06;28.10;;;18.00;;
20824;SDS011;10573;50.936;6.978;2022-07-23T02:27:33;28.02;;;17.90;;
20824;SDS011;10573;50.936;6.978;2022-07-23T02:29:59;28.98;;;18.65;;
20824;SDS011;10573;50.936;6.978;2022-07-23T02:32:24;32.55;;;19.65;;
20824;SDS011;10573;50.936;6.978;2022-07-23T02:34:50;32.50;;;20.03;;
20824;SDS011;10573;50.936;6.978;2022-07-23T02:37:16;32.03;;;19.60;;
20824;SDS011;10573;50.936;6.978;2022-07-23T02:39:42;35.78;;;20.52;;
20824;SDS011;10573;50.936;6.978;2022-07-23T02:42:08;33.47;;;19.85;;
20824;SDS011;10573;50.936;6.978;2022-07-23T02:44:34;32.70;;;19.03;;
20824;SDS011;10573;50.936;6.978;2022-07-23T02:46:59;29.23;;;18.75;;
20824;SDS011;10573;50.936;6.978;2022-07-23T02:49:25;35.80;;;19.17;;
20824;SDS011;10573;50.936;6.978;2022-07-23T02:51:50;28.53;;;17.67;;
20824;SDS011;10573;50.936;6.978;2022-07-23T02:54:16;28.33;;;17.73;;
20824;SDS011;10573;50.936;6.978;2022-07-23T02:56:41;25.40;;;17.20;;
20824;SDS011;10573;50.936;6.978;2022-07-23T02:59:07;30.20;;;18.07;;
20824;SDS011;10573;50.936;6.978;2022-07-23T03:01:33;27.23;;;17.30;;
20824;SDS011;10573;50.936;6.978;2022-07-23T03:03:58;28.13;;;16.67;;
20824;SDS011;10573;50.936;6.978;2022-07-23T03:06:24;26.23;;;16.63;;
20824;SDS011;10573;50.936;6.978;2022-07-23T03:08:49;25.93;;;16.83;;
20824;SDS011;10573;50.936;6.978;2022-07-23T03:11:15;27.27;;;17.33;;
20824;SDS011;10573;50.936;6.978;2022-07-23T03:13:41;27.07;;;16.60;;
20824;SDS011;10573;50.936;6.978;2022-07-23T03:16:06;26.83;;;16.47;;
20824;SDS011;10573;50.936;6.978;2022-07-23T03:18:32;24.63;;;16.43;;
20824;SDS011;10573;50.936;6.978;2022-07-23T03:20:58;29.13;;;18.67;;
20824;SDS011;10573;50.936;6.978;2022-07-23T03:23:24;28.88;;;19.15;;
20824;SDS011;10573;50.936;6.978;2022-07-23T03:25:50;33.00;;;19.70;;
20824;SDS011;10573;50.936;6.978;2022-07-23T03:28:15;33.70;;;20.75;;
20824;SDS011;10573;50.936;6.978;2022-07-23T03:30:42;34.55;;;20.08;;
20824;SDS011;10573;50.936;6.978;2022-07-23T03:33:08;34.58;;;20.75;;
20824;SDS011;10573;50.936;6.978;2022-07-23T03:35:33;40.05;;;22.33;;
20824;SDS011;10573;50.936;6.978;2022-07-23T03:37:59;38.87;;;21.53;;
20824;SDS011;10573;50.936;6.978;2022-07-23T03:40:24;36.17;;;21.10;;
20824;SDS011;10573;50.936;6.978;2022-07-23T03:42:50;39.43;;;21.37;;
20824;SDS011;10573;50.936;6.978;2022-07-23T03:45:15;40.00;;;22.05;;
20824;SDS011;10573;50.936;6.978;2022-07-23T03:47:41;41.93;;;23.40;;
20824;SDS011;10573;50.936;6.978;2022-07-23T03:50:06;35.77;;;22.17;;
20824;SDS011;10573;50.936;6.978;2022-07-23T03:52:32;36.20;;;21.90;;
20824;SDS011;10573;50.936;6.978;2022-07-23T03:54:57;39.53;;;22.08;;
20824;SDS011;10573;50.936;6.978;2022-07-23T03:57:23;37.33;;;21.70;;
20824;SDS011;10573;50.936;6.978;2022-07-23T03:59:48;40.78;;;22.63;;
20824;SDS011;10573;50.936;6.978;2022-07-23T04:02:14;39.70;;;22.53;;
20824;SDS011;10573;50.936;6.978;2022-07-23T04:04:39;39.30;;;22.52;;
20824;SDS011;10573;50.936;6.978;2022-07-23T04:07:05;38.13;;;22.50;;
20824;SDS011;10573;50.936;6.978;2022-07-23T04:09:32;42.20;;;22.60;;
20824;SDS011;10573;50.936;6.978;2022-07-23T04:11:58;38.17;;;23.15;;
20824;SDS011;10573;50.936;6.978;2022-07-23T04:14:24;38.80;;;22.70;;
20824;SDS011;10573;50.936;6.978;2022-07-23T04:16:49;38.22;;;23.08;;
20824;SDS011;10573;50.936;6.978;2022-07-23T04:19:15;38.40;;;21.97;;
20824;SDS011;10573;50.936;6.978;2022-07-23T04:21:40;40.40;;;22.03;;
20824;SDS011;10573;50.936;6.978;2022-07-23T04:24:06;36.80;;;21.90;;
20824;SDS011;10573;50.936;6.978;2022-07-23T04:26:31;37.63;;;21.95;;
20824;SDS011;10573;50.936;6.978;2022-07-23T04:28:57;36.57;;;21.47;;
20824;SDS011;10573;50.936;6.978;2022-07-23T04:31:22;35.03;;;21.23;;
20824;SDS011;10573;50.936;6.978;2022-07-23T04:33:47;38.42;;;21.85;;
20824;SDS011;10573;50.936;6.978;2022-07-23T04:36:13;33.67;;;21.30;;
20824;SDS011;10573;50.936;6.978;2022-07-23T04:38:38;40.95;;;22.88;;
20824;SDS011;10573;50.936;6.978;2022-07-23T04:41:04;36.03;;;21.90;;
20824;SDS011;10573;50.936;6.978;2022-07-23T04:43:29;37.70;;;22.65;;
20824;SDS011;10573;50.936;6.978;2022-07-23T04:45:55;37.47;;;21.80;;
20824;SDS011;10573;50.936;6.978;2022-07-23T04:48:21;35.90;;;21.45;;
20824;SDS011;10573;50.936;6.978;2022-07-23T04:50:46;36.67;;;20.55;;
20824;SDS011;10573;50.936;6.978;2022-07-23T04:53:12;31.83;;;20.17;;
20824;SDS011;10573;50.936;6.978;2022-07-23T04:55:37;39.22;;;21.20;;
20824;SDS011;10573;50.936;6.978;2022-07-23T04:58:03;33.53;;;19.57;;
20824;SDS011;10573;50.936;6.978;2022-07-23T05:00:28;33.53;;;19.53;;
20824;SDS011;10573;50.936;6.978;2022-07-23T05:02:53;34.25;;;20.05;;
20824;SDS011;10573;50.936;6.978;2022-07-23T05:05:19;33.43;;;19.50;;
20824;SDS011;10573;50.936;6.978;2022-07-23T05:07:44;34.38;;;19.13;;
20824;SDS011;10573;50.936;6.978;2022-07-23T05:10:10;33.37;;;19.87;;
20824;SDS011;10573;50.936;6.978;2022-07-23T05:12:35;31.40;;;19.65;;
20824;SDS011;10573;50.936;6.978;2022-07-23T05:15:01;34.40;;;20.33;;
20824;SDS011;10573;50.936;6.978;2022-07-23T05:17:26;36.83;;;20.30;;
20824;SDS011;10573;50.936;6.978;2022-07-23T05:19:52;35.67;;;19.73;;
20824;SDS011;10573;50.936;6.978;2022-07-23T05:22:17;36.83;;;20.43;;
20824;SDS011;10573;50.936;6.978;2022-07-23T05:24:42;34.08;;;20.67;;
20824;SDS011;10573;50.936;6.978;2022-07-23T05:27:08;34.83;;;20.47;;
20824;SDS011;10573;50.936;6.978;2022-07-23T05:29:33;37.33;;;20.50;;
20824;SDS011;10573;50.936;6.978;2022-07-23T05:31:59;33.27;;;19.70;;
20824;SDS011;10573;50.936;6.978;2022-07-23T05:34:24;36.28;;;20.92;;
20824;SDS011;10573;50.936;6.978;2022-07-23T05:36:50;34.00;;;19.63;;
20824;SDS011;10573;50.936;6.978;2022-07-23T05:39:15;41.67;;;22.03;;
20824;SDS011;10573;50.936;6.978;2022-07-23T05:41:41;37.47;;;22.02;;
20824;SDS011;10573;50.936;6.978;2022-07-23T05:44:06;36.17;;;21.77;;
20824;SDS011;10573;50.936;6.978;2022-07-23T05:46:32;41.03;;;21.50;;
20824;SDS011;10573;50.936;6.978;2022-07-23T05:48:57;36.27;;;21.40;;
20824;SDS011;10573;50.936;6.978;2022-07-23T05:51:23;37.77;;;22.20;;
20824;SDS011;10573;50.936;6.978;2022-07-23T05:53:49;40.47;;;21.48;;
20824;SDS011;10573;50.936;6.978;2022-07-23T05:56:15;38.72;;;22.15;;
20824;SDS011;10573;50.936;6.978;2022-07-23T05:58:41;40.45;;;22.73;;
20824;SDS011;10573;50.936;6.978;2022-07-23T06:01:06;39.53;;;21.30;;
20824;SDS011;10573;50.936;6.978;2022-07-23T06:03:32;39.53;;;21.73;;
20824;SDS011;10573;50.936;6.978;2022-07-23T06:05:57;35.20;;;20.33;;
20824;SDS011;10573;50.936;6.978;2022-07-23T06:08:23;34.13;;;20.57;;
20824;SDS011;10573;50.936;6.978;2022-07-23T06:10:48;41.03;;;21.90;;
20824;SDS011;10573;50.936;6.978;2022-07-23T06:13:14;39.53;;;21.65;;
20824;SDS011;10573;50.936;6.978;2022-07-23T06:15:40;36.97;;;20.95;;
20824;SDS011;10573;50.936;6.978;2022-07-23T06:18:05;36.47;;;20.30;;
20824;SDS011;10573;50.936;6.978;2022-07-23T06:20:31;39.90;;;20.92;;
20824;SDS011;10573;50.936;6.978;2022-07-23T06:22:56;33.87;;;19.60;;
20824;SDS011;10573;50.936;6.978;2022-07-23T06:25:21;35.27;;;19.43;;
20824;SDS011;10573;50.936;6.978;2022-07-23T06:27:47;36.00;;;19.17;;
20824;SDS011;10573;50.936;6.978;2022-07-23T06:30:13;31.27;;;18.60;;
20824;SDS011;10573;50.936;6.978;2022-07-23T06:32:41;34.43;;;18.80;;
20824;SDS011;10573;50.936;6.978;2022-07-23T06:35:06;29.77;;;17.83;;
20824;SDS011;10573;50.936;6.978;2022-07-23T06:37:32;31.00;;;18.52;;
20824;SDS011;10573;50.936;6.978;2022-07-23T06:39:58;32.05;;;18.63;;
20824;SDS011;10573;50.936;6.978;2022-07-23T06:42:23;33.43;;;19.17;;
20824;SDS011;10573;50.936;6.978;2022-07-23T06:44:49;32.43;;;18.50;;
20824;SDS011;10573;50.936;6.978;2022-07-23T06:47:14;30.73;;;18.40;;
20824;SDS011;10573;50.936;6.978;2022-07-23T06:49:39;30.60;;;18.80;;
20824;SDS011;10573;50.936;6.978;2022-07-23T06:52:06;29.98;;;18.15;;
20824;SDS011;10573;50.936;6.978;2022-07-23T06:54:32;32.78;;;18.45;;
20824;SDS011;10573;50.936;6.978;2022-07-23T06:56:57;27.83;;;17.10;;
20824;SDS011;10573;50.936;6.978;2022-07-23T06:59:23;28.58;;;15.98;;
20824;SDS011;10573;50.936;6.978;2022-07-23T07:01:49;24.83;;;15.13;;
20824;SDS011;10573;50.936;6.978;2022-07-23T07:04:14;25.60;;;15.50;;
20824;SDS011;10573;50.936;6.978;2022-07-23T07:06:39;27.70;;;14.57;;
20824;SDS011;10573;50.936;6.978;2022-07-23T07:09:05;28.57;;;15.77;;
20824;SDS011;10573;50.936;6.978;2022-07-23T07:11:30;19.25;;;13.13;;
20824;SDS011;10573;50.936;6.978;2022-07-23T07:13:56;22.43;;;12.27;;
20824;SDS011;10573;50.936;6.978;2022-07-23T07:16:21;26.90;;;13.03;;
20824;SDS011;10573;50.936;6.978;2022-07-23T07:18:46;24.17;;;14.10;;
20824;SDS011;10573;50.936;6.978;2022-07-23T07:21:12;25.47;;;14.33;;
20824;SDS011;10573;50.936;6.978;2022-07-23T07:23:37;21.00;;;13.10;;
20824;SDS011;10573;50.936;6.978;2022-07-23T07:26:03;19.57;;;12.47;;
20824;SDS011;10573;50.936;6.978;2022-07-23T07:28:28;25.07;;;14.17;;
20824;SDS011;10573;50.936;6.978;2022-07-23T07:30:54;23.10;;;12.63;;
20824;SDS011;10573;50.936;6.978;2022-07-23T07:33:19;19.23;;;12.20;;
20824;SDS011;10573;50.936;6.978;2022-07-23T07:35:46;19.05;;;11.85;;
20824;SDS011;10573;50.936;6.978;2022-07-23T07:38:11;23.20;;;12.37;;
20824;SDS011;10573;50.936;6.978;2022-07-23T07:40:37;18.80;;;11.37;;
20824;SDS011;10573;50.936;6.978;2022-07-23T07:43:02;18.80;;;11.48;;
20824;SDS011;10573;50.936;6.978;2022-07-23T07:45:28;17.27;;;11.00;;
20824;SDS011;10573;50.936;6.978;2022-07-23T07:47:54;22.25;;;12.10;;
20824;SDS011;10573;50.936;6.978;2022-07-23T07:50:19;18.47;;;11.37;;
20824;SDS011;10573;50.936;6.978;2022-07-23T07:52:45;17.67;;;10.80;;
20824;SDS011;10573;50.936;6.978;2022-07-23T07:55:11;20.07;;;12.90;;
20824;SDS011;10573;50.936;6.978;2022-07-23T07:57:37;21.45;;;12.88;;
20824;SDS011;10573;50.936;6.978;2022-07-23T08:00:03;19.07;;;12.93;;
20824;SDS011;10573;50.936;6.978;2022-07-23T08:02:39;23.40;;;14.50;;
20824;SDS011;10573;50.936;6.978;2022-07-23T08:05:11;21.52;;;13.88;;
20824;SDS011;10573;50.936;6.978;2022-07-23T08:07:37;23.25;;;14.95;;
20824;SDS011;10573;50.936;6.978;2022-07-23T08:10:04;26.05;;;14.45;;
20824;SDS011;10573;50.936;6.978;2022-07-23T08:12:39;23.52;;;15.07;;
20824;SDS011;10573;50.936;6.978;2022-07-23T08:15:06;22.08;;;14.15;;
20824;SDS011;10573;50.936;6.978;2022-07-23T08:17:32;20.05;;;13.80;;
20824;SDS011;10573;50.936;6.978;2022-07-23T08:19:57;21.63;;;14.13;;
20824;SDS011;10573;50.936;6.978;2022-07-23T08:22:23;19.13;;;12.37;;
20824;SDS011;10573;50.936;6.978;2022-07-23T08:24:48;21.13;;;13.57;;
20824;SDS011;10573;50.936;6.978;2022-07-23T08:27:13;18.33;;;14.23;;
20824;SDS011;10573;50.936;6.978;2022-07-23T08:29:39;21.00;;;13.03;;
20824;SDS011;10573;50.936;6.978;2022-07-23T08:32:04;18.13;;;12.32;;
20824;SDS011;10573;50.936;6.978;2022-07-23T08:34:30;15.73;;;12.23;;
20824;SDS011;10573;50.936;6.978;2022-07-23T08:36:55;18.63;;;13.03;;
20824;SDS011;10573;50.936;6.978;2022-07-23T08:39:20;21.58;;;13.57;;
20824;SDS011;10573;50.936;6.978;2022-07-23T08:41:46;16.67;;;12.63;;
20824;SDS011;10573;50.936;6.978;2022-07-23T08:44:13;16.52;;;11.60;;
20824;SDS011;10573;50.936;6.978;2022-07-23T08:46:41;16.85;;;11.63;;
20824;SDS011;10573;50.936;6.978;2022-07-23T08:49:07;18.67;;;11.93;;
20824;SDS011;10573;50.936;6.978;2022-07-23T08:51:33;15.63;;;11.35;;
20824;SDS011;10573;50.936;6.978;2022-07-23T08:53:59;17.33;;;11.80;;
20824;SDS011;10573;50.936;6.978;2022-07-23T08:56:25;17.63;;;10.70;;
20824;SDS011;10573;50.936;6.978;2022-07-23T08:58:53;13.83;;;10.67;;
20824;SDS011;10573;50.936;6.978;2022-07-23T09:01:19;15.45;;;9.77;;
20824;SDS011;10573;50.936;6.978;2022-07-23T09:03:44;13.33;;;10.07;;
20824;SDS011;10573;50.936;6.978;2022-07-23T09:06:10;14.20;;;9.93;;
20824;SDS011;10573;50.936;6.978;2022-07-23T09:08:42;16.00;;;10.38;;
20824;SDS011;10573;50.936;6.978;2022-07-23T09:11:10;14.23;;;10.32;;
20824;SDS011;10573;50.936;6.978;2022-07-23T09:21:34;11.05;;;8.77;;
20824;SDS011;10573;50.936;6.978;2022-07-23T09:24:02;12.40;;;9.40;;
20824;SDS011;10573;50.936;6.978;2022-07-23T09:26:36;14.27;;;10.25;;
20824;SDS011;10573;50.936;6.978;2022-07-23T09:31:46;13.07;;;9.20;;
20824;SDS011;10573;50.936;6.978;2022-07-23T09:36:50;11.18;;;8.35;;
20824;SDS011;10573;50.936;6.978;2022-07-23T09:39:25;10.55;;;8.52;;
20824;SDS011;10573;50.936;6.978;2022-07-23T09:42:16;17.15;;;11.48;;
20824;SDS011;10573;50.936;6.978;2022-07-23T09:44:50;19.55;;;14.75;;
20824;SDS011;10573;50.936;6.978;2022-07-23T09:47:20;12.55;;;9.07;;
20824;SDS011;10573;50.936;6.978;2022-07-23T09:52:35;12.35;;;9.63;;
20824;SDS011;10573;50.936;6.978;2022-07-23T09:55:07;13.60;;;11.38;;
20824;SDS011;10573;50.936;6.978;2022-07-23T09:57:33;15.80;;;10.55;;
20824;SDS011;10573;50.936;6.978;2022-07-23T10:00:06;15.18;;;10.98;;
20824;SDS011;10573;50.936;6.978;2022-07-23T10:02:34;12.52;;;9.35;;
20824;SDS011;10573;50.936;6.978;2022-07-23T10:05:00;14.75;;;9.90;;
20824;SDS011;10573;50.936;6.978;2022-07-23T10:07:27;15.23;;;9.97;;
20824;SDS011;10573;50.936;6.978;2022-07-23T10:09:56;14.60;;;9.63;;
20824;SDS011;10573;50.936;6.978;2022-07-23T10:12:23;14.50;;;9.80;;
20824;SDS011;10573;50.936;6.978;2022-07-23T10:14:58;12.38;;;9.75;;
20824;SDS011;10573;50.936;6.978;2022-07-23T10:17:24;14.67;;;10.10;;
20824;SDS011;10573;50.936;6.978;2022-07-23T10:19:49;14.70;;;9.80;;
20824;SDS011;10573;50.936;6.978;2022-07-23T10:22:25;12.53;;;8.67;;
20824;SDS011;10573;50.936;6.978;2022-07-23T10:38:49;10.10;;;8.05;;
20824;SDS011;10573;50.936;6.978;2022-07-23T10:41:30;13.30;;;7.70;;
20824;SDS011;10573;50.936;6.978;2022-07-23T10:44:12;10.48;;;8.55;;
20824;SDS011;10573;50.936;6.978;2022-07-23T10:49:33;8.80;;;6.45;;
20824;SDS011;10573;50.936;6.978;2022-07-23T10:54:40;9.98;;;6.40;;
20824;SDS011;10573;50.936;6.978;2022-07-23T10:57:07;8.05;;;5.35;;
20824;SDS011;10573;50.936;6.978;2022-07-23T11:05:17;9.25;;;5.72;;
20824;SDS011;10573;50.936;6.978;2022-07-23T11:19:11;5.40;;;4.45;;
20824;SDS011;10573;50.936;6.978;2022-07-23T11:24:08;10.20;;;6.20;;
20824;SDS011;10573;50.936;6.978;2022-07-23T11:31:56;7.47;;;5.55;;
20824;SDS011;10573;50.936;6.978;2022-07-23T11:36:55;7.65;;;5.78;;
20824;SDS011;10573;50.936;6.978;2022-07-23T11:39:21;5.93;;;4.93;;
20824;SDS011;10573;50.936;6.978;2022-07-23T11:41:50;4.65;;;3.80;;
20824;SDS011;10573;50.936;6.978;2022-07-23T11:44:29;6.63;;;4.90;;
20824;SDS011;10573;50.936;6.978;2022-07-23T11:47:01;4.47;;;3.92;;
20824;SDS011;10573;50.936;6.978;2022-07-23T11:49:28;4.97;;;4.20;;
20824;SDS011;10573;50.936;6.978;2022-07-23T11:52:13;6.05;;;4.20;;
20824;SDS011;10573;50.936;6.978;2022-07-23T11:57:32;4.75;;;4.25;;
20824;SDS011;10573;50.936;6.978;2022-07-23T12:02:37;6.00;;;5.18;;
20824;SDS011;10573;50.936;6.978;2022-07-23T12:05:07;6.28;;;5.68;;
20824;SDS011;10573;50.936;6.978;2022-07-23T12:07:37;6.85;;;5.03;;
20824;SDS011;10573;50.936;6.978;2022-07-23T12:10:14;7.25;;;5.57;;
20824;SDS011;10573;50.936;6.978;2022-07-23T12:12:44;5.80;;;5.15;;
20824;SDS011;10573;50.936;6.978;2022-07-23T12:15:11;5.15;;;4.28;;
20824;SDS011;10573;50.936;6.978;2022-07-23T12:17:39;5.55;;;5.05;;
20824;SDS011;10573;50.936;6.978;2022-07-23T12:20:07;6.68;;;5.35;;
20824;SDS011;10573;50.936;6.978;2022-07-23T12:22:39;5.53;;;4.78;;
20824;SDS011;10573;50.936;6.978;2022-07-23T12:25:19;4.70;;;4.07;;
20824;SDS011;10573;50.936;6.978;2022-07-23T12:27:46;7.10;;;4.60;;
20824;SDS011;10573;50.936;6.978;2022-07-23T12:30:25;5.72;;;3.85;;
20824;SDS011;10573;50.936;6.978;2022-07-23T12:32:53;7.95;;;6.45;;
20824;SDS011;10573;50.936;6.978;2022-07-23T12:35:20;9.50;;;5.95;;
20824;SDS011;10573;50.936;6.978;2022-07-23T12:37:47;7.53;;;6.20;;
20824;SDS011;10573;50.936;6.978;2022-07-23T12:42:55;8.25;;;5.97;;
20824;SDS011;10573;50.936;6.978;2022-07-23T12:45:25;5.90;;;4.38;;
20824;SDS011;10573;50.936;6.978;2022-07-23T12:48:05;6.60;;;4.38;;
20824;SDS011;10573;50.936;6.978;2022-07-23T12:50:39;6.80;;;4.22;;
20824;SDS011;10573;50.936;6.978;2022-07-23T12:53:16;5.13;;;4.18;;
20824;SDS011;10573;50.936;6.978;2022-07-23T12:55:50;5.53;;;3.28;;
20824;SDS011;10573;50.936;6.978;2022-07-23T12:58:22;5.70;;;3.00;;
20824;SDS011;10573;50.936;6.978;2022-07-23T13:00:51;5.97;;;3.50;;
20824;SDS011;10573;50.936;6.978;2022-07-23T13:03:37;6.65;;;3.97;;
20824;SDS011;10573;50.936;6.978;2022-07-23T13:06:09;5.68;;;3.75;;
20824;SDS011;10573;50.936;6.978;2022-07-23T13:08:37;7.82;;;3.35;;
20824;SDS011;10573;50.936;6.978;2022-07-23T13:11:05;5.13;;;2.80;;
20824;SDS011;10573;50.936;6.978;2022-07-23T13:13:33;4.70;;;2.60;;
20824;SDS011;10573;50.936;6.978;2022-07-23T13:16:00;4.80;;;2.53;;
20824;SDS011;10573;50.936;6.978;2022-07-23T13:18:27;4.35;;;2.92;;
20824;SDS011;10573;50.936;6.978;2022-07-23T13:20:53;2.97;;;2.17;;
20824;SDS011;10573;50.936;6.978;2022-07-23T13:23:20;3.75;;;2.55;;
20824;SDS011;10573;50.936;6.978;2022-07-23T13:25:46;4.32;;;3.00;;
20824;SDS011;10573;50.936;6.978;2022-07-23T13:28:12;5.00;;;2.78;;
20824;SDS011;10573;50.936;6.978;2022-07-23T13:30:38;3.38;;;2.38;;
20824;SDS011;10573;50.936;6.978;2022-07-23T13:33:04;4.45;;;2.13;;
20824;SDS011;10573;50.936;6.978;2022-07-23T13:35:30;4.60;;;2.15;;
20824;SDS011;10573;50.936;6.978;2022-07-23T13:37:56;2.45;;;2.00;;
20824;SDS011;10573;50.936;6.978;2022-07-23T13:40:22;3.33;;;1.90;;
20824;SDS011;10573;50.936;6.978;2022-07-23T13:42:47;3.17;;;2.10;;
20824;SDS011;10573;50.936;6.978;2022-07-23T13:45:13;4.80;;;2.00;;
20824;SDS011;10573;50.936;6.978;2022-07-23T13:47:38;2.35;;;2.05;;
20824;SDS011;10573;50.936;6.978;2022-07-23T13:50:04;4.15;;;2.40;;
20824;SDS011;10573;50.936;6.978;2022-07-23T13:52:31;3.13;;;2.00;;
20824;SDS011;10573;50.936;6.978;2022-07-23T13:54:58;4.03;;;2.00;;
20824;SDS011;10573;50.936;6.978;2022-07-23T13:57:25;3.17;;;2.10;;
20824;SDS011;10573;50.936;6.978;2022-07-23T13:59:51;4.10;;;2.17;;
20824;SDS011;10573;50.936;6.978;2022-07-23T14:02:16;5.22;;;2.55;;
20824;SDS011;10573;50.936;6.978;2022-07-23T14:04:43;6.85;;;2.13;;
20824;SDS011;10573;50.936;6.978;2022-07-23T14:07:09;3.80;;;2.70;;
20824;SDS011;10573;50.936;6.978;2022-07-23T14:09:34;2.35;;;2.05;;
20824;SDS011;10573;50.936;6.978;2022-07-23T14:12:00;2.53;;;2.00;;
20824;SDS011;10573;50.936;6.978;2022-07-23T14:14:26;2.55;;;2.03;;
20824;SDS011;10573;50.936;6.978;2022-07-23T14:16:51;2.65;;;2.13;;
20824;SDS011;10573;50.936;6.978;2022-07-23T14:19:17;2.80;;;1.77;;
20824;SDS011;10573;50.936;6.978;2022-07-23T14:21:42;2.63;;;2.08;;
20824;SDS011;10573;50.936;6.978;2022-07-23T14:24:08;2.58;;;2.22;;
20824;SDS011;10573;50.936;6.978;2022-07-23T14:26:33;2.63;;;1.90;;
20824;SDS011;10573;50.936;6.978;2022-07-23T14:28:59;2.90;;;1.80;;
20824;SDS011;10573;50.936;6.978;2022-07-23T14:31:25;2.15;;;1.60;;
20824;SDS011;10573;50.936;6.978;2022-07-23T14:33:51;2.10;;;1.75;;
20824;SDS011;10573;50.936;6.978;2022-07-23T14:36:16;2.05;;;1.75;;
20824;SDS011;10573;50.936;6.978;2022-07-23T14:38:42;3.22;;;1.77;;
20824;SDS011;10573;50.936;6.978;2022-07-23T14:41:07;2.10;;;1.80;;
20824;SDS011;10573;50.936;6.978;2022-07-23T14:43:36;1.98;;;1.88;;
20824;SDS011;10573;50.936;6.978;2022-07-23T14:46:02;2.15;;;1.45;;
20824;SDS011;10573;50.936;6.978;2022-07-23T14:48:27;1.70;;;1.50;;
20824;SDS011;10573;50.936;6.978;2022-07-23T14:50:53;4.22;;;2.13;;
20824;SDS011;10573;50.936;6.978;2022-07-23T14:53:18;2.33;;;1.55;;
20824;SDS011;10573;50.936;6.978;2022-07-23T14:55:44;3.20;;;1.70;;
20824;SDS011;10573;50.936;6.978;2022-07-23T14:58:09;4.95;;;2.05;;
20824;SDS011;10573;50.936;6.978;2022-07-23T15:00:35;3.47;;;1.83;;
20824;SDS011;10573;50.936;6.978;2022-07-23T15:03:01;2.97;;;2.22;;
